createdAt,value
2019-04-21T00:00:54.282Z,45.90
2019-04-21T00:03:26.048Z,45.87
2019-04-21T00:06:08.929Z,46.63
2019-04-21T00:08:42.841Z,45.10
2019-04-21T00:11:16.173Z,45.55
2019-04-21T00:13:39.687Z,46.47
2019-04-21T00:16:00.328Z,46.81
2019-04-21T00:18:51.941Z,47.85
2019-04-21T00:21:25.510Z,48.85
2019-04-21T00:24:00.397Z,47.61
2019-04-21T00:26:33.315Z,48.45
2019-04-21T00:29:12.508Z,48.60
2019-04-21T00:31:35.287Z,48.15
2019-04-21T00:33:51.960Z,47.86
2019-04-21T00:36:27.803Z,47.84
2019-04-21T00:39:28.980Z,46.95
2019-04-21T00:41:48.418Z,47.40
2019-04-21T00:44:12.626Z,47.68
2019-04-21T00:46:44.886Z,47.61
2019-04-21T00:49:18.181Z,46.70
2019-04-21T00:52:11.455Z,47.29
2019-04-21T00:54:45.921Z,48.08
2019-04-21T00:57:11.611Z,47.77
2019-04-21T00:59:40.287Z,47.39
2019-04-21T01:02:09.838Z,48.22
2019-04-21T01:04:42.881Z,46.98
2019-04-21T01:07:12.581Z,47.99
2019-04-21T01:09:42.516Z,47.06
2019-04-21T01:12:12.618Z,47.31
2019-04-21T01:14:56.888Z,47.24
2019-04-21T01:17:23.008Z,48.04
2019-04-21T01:19:44.134Z,46.80
2019-04-21T01:22:02.717Z,46.70
2019-04-21T01:24:37.904Z,47.84
2019-04-21T01:27:12.705Z,48.47
2019-04-21T01:29:54.913Z,47.76
2019-04-21T01:32:31.190Z,48.31
2019-04-21T01:34:58.198Z,48.00
2019-04-21T01:37:34.404Z,47.98
2019-04-21T01:40:14.356Z,48.52
2019-04-21T01:42:33.474Z,49.29
2019-04-21T01:45:05.491Z,47.09
2019-04-21T01:47:31.423Z,48.27
2019-04-21T01:49:55.594Z,48.49
2019-04-21T01:52:47.953Z,48.99
2019-04-21T01:55:23.456Z,49.35
2019-04-21T01:57:49.579Z,49.87
2019-04-21T02:00:13.649Z,49.48
2019-04-21T02:02:59.408Z,49.66
2019-04-21T02:05:31.283Z,48.66
2019-04-21T02:07:59.798Z,49.06
2019-04-21T02:10:34.548Z,49.60
2019-04-21T02:13:03.527Z,49.81
2019-04-21T02:15:46.674Z,49.42
2019-04-21T02:18:07.323Z,49.66
2019-04-21T02:20:29.168Z,46.89
2019-04-21T02:25:44.659Z,49.68
2019-04-21T02:28:24.014Z,48.34
2019-04-21T02:31:04.963Z,49.79
2019-04-21T02:36:24.670Z,50.25
2019-04-21T02:38:44.842Z,50.85
2019-04-21T02:43:25.634Z,50.41
2019-04-21T02:46:04.244Z,50.92
2019-04-21T02:48:38.279Z,50.67
2019-04-21T02:53:53.660Z,50.76
2019-04-21T02:56:11.189Z,50.17
2019-04-21T03:01:50.300Z,51.05
2019-04-21T03:04:30.371Z,49.94
2019-04-21T03:07:07.043Z,49.38
2019-04-21T03:09:31.794Z,50.61
2019-04-21T03:14:50.341Z,53.44
2019-04-21T03:17:05.384Z,54.40
2019-04-21T03:19:45.199Z,54.68
2019-04-21T03:22:12.295Z,54.87
2019-04-21T03:24:53.400Z,54.70
2019-04-21T03:27:17.271Z,54.96
2019-04-21T03:29:45.570Z,54.18
2019-04-21T03:39:56.807Z,55.29
2019-04-21T03:45:06.957Z,53.99
2019-04-21T03:47:26.884Z,54.21
2019-04-21T03:49:54.720Z,53.48
2019-04-21T04:03:30.051Z,51.89
2019-04-21T04:08:31.891Z,50.75
2019-04-21T04:11:02.721Z,51.05
2019-04-21T04:13:39.367Z,51.63
2019-04-21T04:16:05.899Z,54.00
2019-04-21T04:18:40.825Z,54.90
2019-04-21T04:21:03.594Z,55.98
2019-04-21T04:23:41.664Z,56.77
2019-04-21T04:26:09.055Z,56.14
2019-04-21T04:28:49.877Z,55.20
2019-04-21T04:36:33.894Z,54.93
2019-04-21T04:38:52.263Z,54.90
2019-04-21T04:43:54.597Z,53.77
2019-04-21T04:46:17.888Z,54.33
2019-04-21T04:48:54.994Z,53.79
2019-04-21T04:51:36.711Z,54.60
2019-04-21T05:01:32.375Z,54.74
2019-04-21T05:04:20.567Z,55.25
2019-04-21T05:19:16.279Z,59.62
2019-04-21T05:23:59.985Z,58.69
2019-04-21T05:26:33.395Z,58.32
2019-04-21T05:29:00.672Z,58.33
2019-04-21T05:31:47.704Z,58.34
2019-04-21T05:34:16.985Z,58.72
2019-04-21T05:36:59.545Z,57.99
2019-04-21T05:39:41.956Z,57.27
2019-04-21T05:42:04.974Z,57.09
2019-04-21T05:45:01.826Z,56.91
2019-04-21T05:47:29.558Z,55.80
2019-04-21T05:49:55.651Z,56.65
2019-04-21T05:52:25.162Z,56.36
2019-04-21T05:55:05.292Z,57.10
2019-04-21T05:57:28.871Z,56.64
2019-04-21T06:00:01.213Z,56.46
2019-04-21T06:02:35.507Z,56.11
2019-04-21T06:07:40.986Z,55.93
2019-04-21T06:10:08.920Z,55.41
2019-04-21T06:12:44.970Z,55.93
2019-04-21T06:15:14.223Z,56.68
2019-04-21T06:17:43.916Z,56.27
2019-04-21T06:20:15.362Z,56.67
2019-04-21T06:22:50.516Z,56.40
2019-04-21T06:27:51.214Z,54.88
2019-04-21T06:30:24.000Z,55.41
2019-04-21T06:32:52.648Z,54.69
2019-04-21T06:35:45.542Z,54.05
2019-04-21T06:38:04.661Z,54.74
2019-04-21T06:40:38.641Z,54.03
2019-04-21T06:43:19.657Z,54.65
2019-04-21T06:45:45.841Z,55.34
2019-04-21T06:48:10.992Z,55.14
2019-04-21T06:50:47.534Z,55.06
2019-04-21T06:53:15.439Z,55.24
2019-04-21T06:55:41.936Z,55.63
2019-04-21T06:58:10.166Z,54.93
2019-04-21T07:00:43.230Z,54.60
2019-04-21T07:03:20.793Z,54.57
2019-04-21T07:05:58.968Z,55.34
2019-04-21T07:08:31.301Z,54.09
2019-04-21T07:10:52.090Z,54.68
2019-04-21T07:13:22.214Z,54.00
2019-04-21T07:16:02.911Z,54.21
2019-04-21T07:18:32.751Z,54.18
2019-04-21T07:20:56.378Z,54.47
2019-04-21T07:23:30.299Z,54.63
2019-04-21T07:25:57.907Z,53.70
2019-04-21T07:28:32.225Z,52.25
2019-04-21T07:31:03.718Z,51.99
2019-04-21T07:36:01.402Z,51.29
2019-04-21T07:38:33.244Z,51.87
2019-04-21T07:40:59.453Z,50.93
2019-04-21T07:43:29.752Z,51.51
2019-04-21T07:46:04.209Z,51.42
2019-04-21T07:48:49.888Z,50.94
2019-04-21T07:51:42.014Z,51.40
2019-04-21T07:54:13.407Z,51.29
2019-04-21T07:56:23.245Z,50.75
2019-04-21T07:59:31.553Z,51.00
2019-04-21T08:01:44.798Z,50.30
2019-04-21T08:04:33.268Z,50.60
2019-04-21T08:06:47.742Z,50.49
2019-04-21T08:09:11.908Z,50.48
2019-04-21T08:11:46.262Z,51.05
2019-04-21T08:14:18.122Z,50.85
2019-04-21T08:16:52.719Z,50.79
2019-04-21T08:19:18.986Z,50.43
2019-04-21T08:21:57.835Z,50.37
2019-04-21T08:24:19.800Z,49.72
2019-04-21T08:26:58.669Z,49.87
2019-04-21T08:32:02.609Z,47.82
2019-04-21T08:36:58.859Z,46.48
2019-04-21T08:39:37.314Z,46.88
2019-04-21T08:42:04.433Z,46.18
2019-04-21T08:44:40.094Z,45.52
2019-04-21T08:47:07.419Z,45.77
2019-04-21T08:49:41.490Z,43.62
2019-04-21T08:52:15.259Z,43.69
2019-04-21T08:54:43.978Z,44.35
2019-04-21T08:57:20.152Z,42.08
2019-04-21T08:59:55.218Z,41.03
2019-04-21T09:02:34.075Z,40.84
2019-04-21T09:04:58.513Z,40.41
2019-04-21T09:07:33.088Z,39.43
2019-04-21T09:10:04.230Z,38.58
2019-04-21T09:12:34.711Z,38.44
2019-04-21T09:15:08.828Z,39.14
2019-04-21T09:17:31.605Z,39.50
2019-04-21T09:20:13.394Z,37.04
2019-04-21T09:22:35.827Z,37.36
2019-04-21T09:25:09.545Z,36.59
2019-04-21T09:27:36.607Z,37.73
2019-04-21T09:29:59.349Z,36.99
2019-04-21T09:32:29.418Z,37.12
2019-04-21T09:34:58.104Z,36.39
2019-04-21T09:37:39.999Z,36.18
2019-04-21T09:40:00.899Z,36.05
2019-04-21T09:42:35.981Z,34.51
2019-04-21T09:45:04.928Z,35.01
2019-04-21T09:47:40.195Z,33.97
2019-04-21T09:50:09.548Z,33.91
2019-04-21T09:52:45.154Z,32.92
2019-04-21T09:55:15.906Z,32.99
2019-04-21T09:57:48.506Z,30.44
2019-04-21T10:00:20.637Z,30.36
2019-04-21T10:02:56.793Z,28.70
2019-04-21T10:05:19.096Z,27.53
2019-04-21T10:07:49.037Z,27.63
2019-04-21T10:10:19.281Z,27.17
2019-04-21T10:12:49.951Z,27.16
2019-04-21T10:15:23.202Z,28.39
2019-04-21T10:17:56.089Z,26.08
2019-04-21T10:20:26.452Z,26.35
2019-04-21T10:22:57.302Z,26.94
2019-04-21T10:25:28.265Z,26.70
2019-04-21T10:27:59.058Z,27.21
2019-04-21T10:30:29.001Z,26.93
2019-04-21T10:32:58.618Z,27.08
2019-04-21T10:35:28.838Z,26.27
2019-04-21T10:38:11.009Z,27.41
2019-04-21T10:40:32.616Z,25.85
2019-04-21T10:43:01.457Z,26.47
2019-04-21T10:45:31.177Z,25.98
2019-04-21T10:48:00.991Z,26.31
2019-04-21T10:50:31.384Z,25.74
2019-04-21T10:53:18.816Z,26.89
2019-04-21T10:56:04.191Z,26.37
2019-04-21T10:58:30.487Z,25.70
2019-04-21T11:01:08.430Z,27.53
2019-04-21T11:03:41.415Z,26.58
2019-04-21T11:06:14.769Z,26.85
2019-04-21T11:08:48.889Z,27.03
2019-04-21T11:11:16.283Z,25.72
2019-04-21T11:13:46.394Z,26.22
2019-04-21T11:16:17.250Z,24.20
2019-04-21T11:18:48.201Z,25.83
2019-04-21T11:21:18.780Z,24.31
2019-04-21T11:23:48.545Z,24.63
2019-04-21T11:26:18.191Z,23.50
2019-04-21T11:28:48.977Z,24.69
2019-04-21T11:31:20.779Z,24.65
2019-04-21T11:33:51.170Z,23.90
2019-04-21T11:36:21.621Z,23.85
2019-04-21T11:39:12.411Z,23.03
2019-04-21T11:41:30.151Z,23.03
2019-04-21T11:44:01.335Z,23.07
2019-04-21T11:46:31.219Z,23.88
2019-04-21T11:49:02.238Z,23.17
2019-04-21T11:51:33.178Z,22.60
2019-04-21T11:54:03.019Z,22.87
2019-04-21T11:56:32.804Z,22.38
2019-04-21T11:59:03.764Z,21.30
2019-04-21T12:01:33.796Z,21.91
2019-04-21T12:04:03.719Z,22.12
2019-04-21T12:06:39.711Z,21.81
2019-04-21T12:09:08.083Z,21.83
2019-04-21T12:11:39.003Z,21.06
2019-04-21T12:14:09.903Z,21.69
2019-04-21T12:16:41.092Z,20.06
2019-04-21T12:19:10.982Z,21.08
2019-04-21T12:21:53.282Z,19.97
2019-04-21T12:24:13.186Z,20.86
2019-04-21T12:26:44.470Z,21.26
2019-04-21T12:29:14.658Z,20.39
2019-04-21T12:32:03.426Z,19.79
2019-04-21T12:34:34.288Z,20.43
2019-04-21T12:37:04.634Z,20.14
2019-04-21T12:39:34.754Z,19.98
2019-04-21T12:42:04.814Z,20.18
2019-04-21T12:44:34.567Z,20.23
2019-04-21T12:47:04.287Z,18.87
2019-04-21T12:49:33.926Z,18.96
2019-04-21T12:52:04.180Z,19.36
2019-04-21T12:54:35.392Z,18.52
2019-04-21T12:57:05.458Z,18.87
2019-04-21T12:59:36.299Z,19.58
2019-04-21T13:02:07.504Z,19.83
2019-04-21T13:04:37.849Z,19.03
2019-04-21T13:07:07.917Z,18.81
2019-04-21T13:09:38.093Z,18.72
2019-04-21T13:12:08.977Z,17.91
2019-04-21T13:14:39.885Z,18.99
2019-04-21T13:17:09.921Z,19.24
2019-04-21T13:19:41.136Z,19.61
2019-04-21T13:22:12.104Z,18.05
2019-04-21T13:24:42.151Z,17.95
2019-04-21T13:27:12.760Z,17.70
2019-04-21T13:29:43.939Z,18.20
2019-04-21T13:32:14.394Z,18.11
2019-04-21T13:34:44.420Z,18.14
2019-04-21T13:37:15.239Z,17.21
2019-04-21T13:40:18.171Z,17.67
2019-04-21T13:42:34.269Z,17.95
2019-04-21T13:45:00.587Z,18.22
2019-04-21T13:47:28.755Z,18.10
2019-04-21T13:49:59.836Z,17.35
2019-04-21T13:52:30.944Z,16.99
2019-04-21T13:55:01.235Z,16.96
2019-04-21T13:57:32.424Z,16.82
2019-04-21T14:00:03.502Z,17.09
2019-04-21T14:02:34.517Z,17.51
2019-04-21T14:05:08.535Z,17.49
2019-04-21T14:07:38.530Z,16.88
2019-04-21T14:10:10.999Z,16.50
2019-04-21T14:12:42.534Z,16.76
2019-04-21T14:15:14.636Z,16.90
2019-04-21T14:17:44.655Z,17.05
2019-04-21T14:20:15.298Z,16.91
2019-04-21T14:22:46.352Z,16.62
2019-04-21T14:25:17.480Z,17.08
2019-04-21T14:27:50.010Z,16.75
2019-04-21T14:30:20.759Z,16.98
2019-04-21T14:32:50.380Z,17.31
2019-04-21T14:35:20.923Z,17.04
2019-04-21T14:37:50.986Z,16.71
2019-04-21T14:40:25.509Z,17.17
2019-04-21T14:42:54.061Z,17.19
2019-04-21T14:45:32.645Z,16.67
2019-04-21T14:48:05.074Z,17.05
2019-04-21T14:50:40.006Z,16.67
2019-04-21T14:53:23.612Z,16.56
2019-04-21T14:55:53.408Z,15.83
2019-04-21T14:58:23.390Z,16.18
2019-04-21T15:01:04.183Z,16.04
2019-04-21T15:03:34.335Z,15.14
2019-04-21T15:06:05.427Z,15.08
2019-04-21T15:08:35.431Z,14.10
2019-04-21T15:11:05.417Z,13.75
2019-04-21T15:13:35.538Z,13.86
2019-04-21T15:16:06.902Z,13.96
2019-04-21T15:18:36.884Z,13.20
2019-04-21T15:21:07.778Z,12.79
2019-04-21T15:23:38.256Z,13.03
2019-04-21T15:26:08.397Z,13.89
2019-04-21T15:28:40.523Z,13.77
2019-04-21T15:31:12.795Z,13.66
2019-04-21T15:33:41.313Z,14.00
2019-04-21T15:36:11.298Z,14.13
2019-04-21T15:38:41.097Z,14.58
2019-04-21T15:41:11.314Z,14.66
2019-04-21T15:43:42.642Z,14.50
2019-04-21T15:46:13.109Z,14.58
2019-04-21T15:48:43.049Z,14.83
2019-04-21T15:51:13.650Z,13.98
2019-04-21T15:53:45.835Z,15.09
2019-04-21T15:56:24.550Z,15.63
2019-04-21T15:59:01.707Z,15.87
2019-04-21T16:01:34.448Z,15.87
2019-04-21T16:04:06.122Z,16.52
2019-04-21T16:06:35.714Z,16.27
2019-04-21T16:09:14.230Z,16.04
2019-04-21T16:11:42.076Z,15.63
2019-04-21T16:14:11.911Z,16.42
2019-04-21T16:16:41.526Z,16.71
2019-04-21T16:19:12.334Z,16.96
2019-04-21T16:21:44.405Z,16.68
2019-04-21T16:24:14.266Z,16.53
2019-04-21T16:26:44.609Z,16.33
2019-04-21T16:29:15.351Z,15.47
2019-04-21T16:31:45.189Z,14.97
2019-04-21T16:34:15.802Z,15.20
2019-04-21T16:36:45.710Z,14.46
2019-04-21T16:39:15.614Z,14.40
2019-04-21T16:41:46.603Z,14.28
2019-04-21T16:44:16.845Z,14.17
2019-04-21T16:46:47.518Z,14.43
2019-04-21T16:49:17.918Z,15.19
2019-04-21T16:51:49.975Z,15.13
2019-04-21T16:54:21.997Z,15.75
2019-04-21T16:56:54.090Z,16.56
2019-04-21T16:59:26.403Z,17.03
2019-04-21T17:01:56.606Z,17.21
2019-04-21T17:04:26.562Z,17.75
2019-04-21T17:06:56.187Z,18.03
2019-04-21T17:09:26.528Z,18.50
2019-04-21T17:11:59.959Z,19.20
2019-04-21T17:14:46.249Z,18.92
2019-04-21T17:17:19.085Z,18.91
2019-04-21T17:19:37.935Z,19.43
2019-04-21T17:22:01.883Z,20.44
2019-04-21T17:24:32.577Z,21.27
2019-04-21T17:27:02.868Z,20.90
2019-04-21T17:29:32.741Z,21.73
2019-04-21T17:32:04.764Z,21.53
2019-04-21T17:34:35.639Z,22.29
2019-04-21T17:37:05.785Z,22.27
2019-04-21T17:39:36.664Z,23.05
2019-04-21T17:42:18.157Z,22.98
2019-04-21T17:44:39.270Z,23.56
2019-04-21T17:47:21.474Z,24.00
2019-04-21T17:49:41.135Z,24.04
2019-04-21T17:52:16.297Z,24.83
2019-04-21T17:54:50.619Z,25.44
2019-04-21T17:57:36.683Z,25.91
2019-04-21T18:00:14.210Z,26.11
2019-04-21T18:02:43.405Z,26.10
2019-04-21T18:05:15.200Z,26.17
2019-04-21T18:07:55.983Z,27.16
2019-04-21T18:10:12.600Z,28.10
2019-04-21T18:12:39.773Z,28.50
2019-04-21T18:15:16.327Z,29.55
2019-04-21T18:17:28.902Z,29.77
2019-04-21T18:19:59.689Z,29.95
2019-04-21T18:22:49.407Z,29.81
2019-04-21T18:25:33.220Z,29.92
2019-04-21T18:27:52.454Z,30.78
2019-04-21T18:30:46.784Z,31.10
2019-04-21T18:33:22.218Z,31.25
2019-04-21T18:35:58.611Z,31.10
2019-04-21T18:38:55.046Z,31.19
2019-04-21T18:41:05.610Z,31.57
2019-04-21T18:44:10.398Z,31.82
2019-04-21T18:46:42.301Z,31.89
2019-04-21T18:48:57.216Z,31.96
2019-04-21T18:51:40.297Z,32.58
2019-04-21T18:54:20.986Z,32.78
2019-04-21T18:56:33.858Z,32.70
2019-04-21T18:59:04.449Z,32.82
2019-04-21T19:01:36.534Z,32.84
2019-04-21T19:04:12.474Z,32.84
2019-04-21T19:06:54.538Z,32.74
2019-04-21T19:09:35.311Z,32.68
2019-04-21T19:11:59.581Z,32.66
2019-04-21T19:14:36.379Z,32.81
2019-04-21T19:17:39.690Z,32.88
2019-04-21T19:19:44.214Z,33.12
2019-04-21T19:22:12.908Z,33.48
2019-04-21T19:27:19.256Z,34.14
2019-04-21T19:29:52.171Z,34.40
2019-04-21T19:32:22.567Z,34.09
2019-04-21T19:34:34.800Z,34.42
2019-04-21T19:37:08.920Z,34.42
2019-04-21T19:39:42.871Z,34.62
2019-04-21T19:42:18.584Z,34.81
2019-04-21T19:44:52.065Z,34.95
2019-04-21T19:47:28.097Z,35.18
2019-04-21T19:49:58.279Z,35.25
2019-04-21T19:52:22.487Z,35.71
2019-04-21T19:54:44.867Z,35.56
2019-04-21T19:57:13.132Z,34.42
2019-04-21T19:59:49.638Z,35.97
2019-04-21T20:02:14.352Z,36.15
2019-04-21T20:04:52.205Z,36.19
2019-04-21T20:07:28.921Z,36.46
2019-04-21T20:10:06.649Z,36.46
2019-04-21T20:12:39.940Z,36.29
2019-04-21T20:15:20.334Z,36.34
2019-04-21T20:17:36.438Z,36.50
2019-04-21T20:19:52.254Z,36.85
2019-04-21T20:22:25.648Z,36.92
2019-04-21T20:25:02.562Z,36.65
2019-04-21T20:27:36.286Z,36.18
2019-04-21T20:30:15.841Z,36.13
2019-04-21T20:32:49.327Z,35.94
2019-04-21T20:35:25.121Z,35.92
2019-04-21T20:37:47.993Z,36.23
2019-04-21T20:40:12.238Z,36.66
2019-04-21T20:42:49.410Z,36.59
2019-04-21T20:45:38.393Z,37.67
2019-04-21T20:47:44.717Z,37.42
2019-04-21T20:50:28.642Z,37.65
2019-04-21T20:52:58.287Z,37.66
2019-04-21T20:55:23.222Z,37.72
2019-04-21T20:57:59.578Z,37.77
2019-04-21T21:00:45.682Z,38.36
2019-04-21T21:03:12.080Z,38.48
2019-04-21T21:05:37.095Z,38.46
2019-04-21T21:08:18.021Z,38.77
2019-04-21T21:10:38.752Z,37.60
2019-04-21T21:13:22.949Z,38.20
2019-04-21T21:15:51.339Z,37.98
2019-04-21T21:18:26.196Z,38.23
2019-04-21T21:20:52.948Z,38.22
2019-04-21T21:23:14.513Z,38.45
2019-04-21T21:25:52.989Z,38.47
2019-04-21T21:28:22.747Z,38.34
2019-04-21T21:30:52.695Z,38.79
2019-04-21T21:33:22.917Z,39.55
2019-04-21T21:35:56.724Z,39.74
2019-04-21T21:38:30.954Z,38.88
2019-04-21T21:40:54.637Z,39.19
2019-04-21T21:43:19.215Z,38.82
2019-04-21T21:45:52.129Z,39.61
2019-04-21T21:48:31.841Z,39.43
2019-04-21T21:51:02.054Z,39.01
2019-04-21T21:53:23.752Z,40.50
2019-04-21T21:55:53.008Z,41.14
2019-04-21T21:58:27.463Z,40.57
2019-04-21T22:01:00.507Z,40.41
2019-04-21T22:03:33.493Z,40.69
2019-04-21T22:06:04.986Z,40.90
2019-04-21T22:08:32.275Z,39.66
2019-04-21T22:11:03.306Z,39.81
2019-04-21T22:13:43.624Z,40.18
2019-04-21T22:16:10.385Z,40.18
2019-04-21T22:18:56.534Z,39.96
2019-04-21T22:21:18.916Z,41.03
2019-04-21T22:23:52.746Z,41.42
2019-04-21T22:26:11.442Z,41.51
2019-04-21T22:28:41.295Z,41.38
2019-04-21T22:31:16.398Z,41.52
2019-04-21T22:33:48.377Z,41.44
2019-04-21T22:36:26.473Z,40.79
2019-04-21T22:39:01.527Z,41.33
2019-04-21T22:41:28.189Z,41.28
2019-04-21T22:43:51.600Z,41.54
2019-04-21T22:46:20.244Z,41.17
2019-04-21T22:48:54.669Z,41.95
2019-04-21T22:51:30.289Z,42.07
2019-04-21T22:53:55.823Z,41.47
2019-04-21T22:56:29.720Z,42.33
2019-04-21T22:58:57.029Z,41.35
2019-04-21T23:01:34.855Z,42.35
2019-04-21T23:04:02.442Z,42.64
2019-04-21T23:06:32.685Z,42.18
2019-04-21T23:09:01.206Z,42.71
2019-04-21T23:11:38.671Z,43.14
2019-04-21T23:14:06.577Z,42.96
2019-04-21T23:16:37.810Z,42.99
2019-04-21T23:19:20.064Z,43.11
2019-04-21T23:21:58.156Z,43.41
2019-04-21T23:24:31.688Z,43.01
2019-04-21T23:26:53.713Z,43.60
2019-04-21T23:29:41.248Z,42.30
2019-04-21T23:31:59.197Z,42.49
2019-04-21T23:34:23.654Z,42.98
2019-04-21T23:36:53.085Z,42.03
2019-04-21T23:39:23.702Z,43.24
2019-04-21T23:41:51.598Z,43.48
2019-04-21T23:44:22.002Z,44.15
2019-04-21T23:46:54.677Z,44.77
2019-04-21T23:49:35.143Z,45.09
2019-04-21T23:52:00.472Z,45.56
2019-04-21T23:54:25.205Z,46.16
2019-04-21T23:56:55.925Z,45.88
2019-04-21T23:59:30.233Z,46.07
